sensor_id;sensor_type;location;lat;lon;timestamp;P1;durP1;ratioP1;P2;durP2;ratioP2
75890;SDS011;64571;47.512;19.054;2023-11-21T00:01:02;14.57;;;5.28;;
75890;SDS011;64571;47.512;19.054;2023-11-21T00:04:06;9.17;;;4.50;;
75890;SDS011;64571;47.512;19.054;2023-11-21T00:07:09;11.63;;;4.05;;
75890;SDS011;64571;47.512;19.054;2023-11-21T00:10:12;12.32;;;4.85;;
75890;SDS011;64571;47.512;19.054;2023-11-21T00:13:16;12.60;;;5.10;;
75890;SDS011;64571;47.512;19.054;2023-11-21T00:16:20;15.93;;;7.03;;
75890;SDS011;64571;47.512;19.054;2023-11-21T00:19:24;16.20;;;6.80;;
75890;SDS011;64571;47.512;19.054;2023-11-21T00:22:26;13.52;;;6.85;;
75890;SDS011;64571;47.512;19.054;2023-11-21T00:25:29;12.25;;;6.47;;
75890;SDS011;64571;47.512;19.054;2023-11-21T00:28:33;16.45;;;6.65;;
75890;SDS011;64571;47.512;19.054;2023-11-21T00:31:36;13.25;;;6.62;;
75890;SDS011;64571;47.512;19.054;2023-11-21T00:34:40;15.20;;;7.37;;
75890;SDS011;64571;47.512;19.054;2023-11-21T00:37:42;14.02;;;6.68;;
75890;SDS011;64571;47.512;19.054;2023-11-21T00:40:45;13.98;;;6.00;;
75890;SDS011;64571;47.512;19.054;2023-11-21T00:43:48;12.77;;;5.28;;
75890;SDS011;64571;47.512;19.054;2023-11-21T00:46:51;11.48;;;4.97;;
75890;SDS011;64571;47.512;19.054;2023-11-21T00:49:53;14.00;;;5.00;;
75890;SDS011;64571;47.512;19.054;2023-11-21T00:52:56;13.85;;;4.72;;
75890;SDS011;64571;47.512;19.054;2023-11-21T00:55:59;12.70;;;5.55;;
75890;SDS011;64571;47.512;19.054;2023-11-21T00:59:01;14.05;;;6.20;;
75890;SDS011;64571;47.512;19.054;2023-11-21T01:02:05;13.43;;;5.93;;
75890;SDS011;64571;47.512;19.054;2023-11-21T01:05:07;13.90;;;5.83;;
75890;SDS011;64571;47.512;19.054;2023-11-21T01:08:10;13.35;;;5.50;;
75890;SDS011;64571;47.512;19.054;2023-11-21T01:11:13;11.45;;;4.47;;
75890;SDS011;64571;47.512;19.054;2023-11-21T01:14:16;15.18;;;5.12;;
75890;SDS011;64571;47.512;19.054;2023-11-21T01:17:20;15.50;;;4.72;;
75890;SDS011;64571;47.512;19.054;2023-11-21T01:20:26;12.20;;;4.63;;
75890;SDS011;64571;47.512;19.054;2023-11-21T01:23:29;12.85;;;4.60;;
75890;SDS011;64571;47.512;19.054;2023-11-21T01:26:33;10.20;;;4.90;;
75890;SDS011;64571;47.512;19.054;2023-11-21T01:29:36;14.90;;;4.62;;
75890;SDS011;64571;47.512;19.054;2023-11-21T01:32:39;9.77;;;4.55;;
75890;SDS011;64571;47.512;19.054;2023-11-21T01:35:42;9.53;;;4.30;;
75890;SDS011;64571;47.512;19.054;2023-11-21T01:38:45;13.77;;;4.78;;
75890;SDS011;64571;47.512;19.054;2023-11-21T01:41:48;10.32;;;4.50;;
75890;SDS011;64571;47.512;19.054;2023-11-21T01:44:50;10.30;;;3.72;;
75890;SDS011;64571;47.512;19.054;2023-11-21T01:47:53;10.02;;;3.53;;
75890;SDS011;64571;47.512;19.054;2023-11-21T01:50:58;10.20;;;3.67;;
75890;SDS011;64571;47.512;19.054;2023-11-21T01:54:01;8.90;;;3.17;;
75890;SDS011;64571;47.512;19.054;2023-11-21T01:57:19;11.00;;;3.60;;
75890;SDS011;64571;47.512;19.054;2023-11-21T02:00:22;11.73;;;3.55;;
75890;SDS011;64571;47.512;19.054;2023-11-21T02:03:26;9.60;;;3.58;;
75890;SDS011;64571;47.512;19.054;2023-11-21T02:06:29;12.23;;;3.07;;
75890;SDS011;64571;47.512;19.054;2023-11-21T02:09:33;9.75;;;2.80;;
75890;SDS011;64571;47.512;19.054;2023-11-21T02:12:36;9.65;;;2.95;;
75890;SDS011;64571;47.512;19.054;2023-11-21T02:15:41;11.25;;;2.87;;
75890;SDS011;64571;47.512;19.054;2023-11-21T02:18:43;9.32;;;2.90;;
75890;SDS011;64571;47.512;19.054;2023-11-21T02:21:46;11.63;;;2.90;;
75890;SDS011;64571;47.512;19.054;2023-11-21T02:24:50;9.43;;;2.80;;
75890;SDS011;64571;47.512;19.054;2023-11-21T02:27:57;7.07;;;2.95;;
75890;SDS011;64571;47.512;19.054;2023-11-21T02:31:00;8.52;;;2.80;;
75890;SDS011;64571;47.512;19.054;2023-11-21T02:34:05;7.03;;;2.72;;
75890;SDS011;64571;47.512;19.054;2023-11-21T02:37:07;8.90;;;2.77;;
75890;SDS011;64571;47.512;19.054;2023-11-21T02:40:10;8.50;;;2.60;;
75890;SDS011;64571;47.512;19.054;2023-11-21T02:43:14;6.37;;;2.70;;
75890;SDS011;64571;47.512;19.054;2023-11-21T02:46:17;9.75;;;3.22;;
75890;SDS011;64571;47.512;19.054;2023-11-21T02:49:19;9.35;;;3.25;;
75890;SDS011;64571;47.512;19.054;2023-11-21T02:52:22;11.07;;;4.57;;
75890;SDS011;64571;47.512;19.054;2023-11-21T02:55:26;15.70;;;5.20;;
75890;SDS011;64571;47.512;19.054;2023-11-21T02:58:29;11.15;;;4.50;;
75890;SDS011;64571;47.512;19.054;2023-11-21T03:01:32;10.30;;;5.10;;
75890;SDS011;64571;47.512;19.054;2023-11-21T03:04:34;14.70;;;5.68;;
75890;SDS011;64571;47.512;19.054;2023-11-21T03:07:37;14.57;;;4.97;;
75890;SDS011;64571;47.512;19.054;2023-11-21T03:10:41;12.25;;;5.30;;
75890;SDS011;64571;47.512;19.054;2023-11-21T03:13:43;13.25;;;6.07;;
75890;SDS011;64571;47.512;19.054;2023-11-21T03:16:47;10.15;;;5.47;;
75890;SDS011;64571;47.512;19.054;2023-11-21T03:19:51;13.45;;;6.70;;
75890;SDS011;64571;47.512;19.054;2023-11-21T03:22:54;18.53;;;5.77;;
75890;SDS011;64571;47.512;19.054;2023-11-21T03:25:57;12.93;;;4.70;;
75890;SDS011;64571;47.512;19.054;2023-11-21T03:29:00;12.63;;;4.95;;
75890;SDS011;64571;47.512;19.054;2023-11-21T03:32:03;9.38;;;4.28;;
75890;SDS011;64571;47.512;19.054;2023-11-21T03:35:06;11.48;;;4.90;;
75890;SDS011;64571;47.512;19.054;2023-11-21T03:38:09;14.23;;;4.67;;
75890;SDS011;64571;47.512;19.054;2023-11-21T03:41:12;11.32;;;4.60;;
75890;SDS011;64571;47.512;19.054;2023-11-21T03:44:14;11.48;;;4.82;;
75890;SDS011;64571;47.512;19.054;2023-11-21T03:47:17;13.68;;;5.12;;
75890;SDS011;64571;47.512;19.054;2023-11-21T03:50:21;11.85;;;4.70;;
75890;SDS011;64571;47.512;19.054;2023-11-21T03:53:24;10.93;;;5.20;;
75890;SDS011;64571;47.512;19.054;2023-11-21T03:56:26;13.25;;;4.70;;
75890;SDS011;64571;47.512;19.054;2023-11-21T03:59:29;10.43;;;4.60;;
75890;SDS011;64571;47.512;19.054;2023-11-21T04:02:31;8.07;;;3.30;;
75890;SDS011;64571;47.512;19.054;2023-11-21T04:05:34;6.97;;;3.15;;
75890;SDS011;64571;47.512;19.054;2023-11-21T04:08:36;10.13;;;3.10;;
75890;SDS011;64571;47.512;19.054;2023-11-21T04:11:39;8.60;;;3.08;;
75890;SDS011;64571;47.512;19.054;2023-11-21T04:14:41;8.68;;;2.70;;
75890;SDS011;64571;47.512;19.054;2023-11-21T04:17:44;8.52;;;2.70;;
75890;SDS011;64571;47.512;19.054;2023-11-21T04:20:50;6.60;;;2.83;;
75890;SDS011;64571;47.512;19.054;2023-11-21T04:23:53;12.10;;;2.80;;
75890;SDS011;64571;47.512;19.054;2023-11-21T04:26:55;11.30;;;2.75;;
75890;SDS011;64571;47.512;19.054;2023-11-21T04:29:58;6.85;;;2.42;;
75890;SDS011;64571;47.512;19.054;2023-11-21T04:33:01;7.55;;;2.60;;
75890;SDS011;64571;47.512;19.054;2023-11-21T04:36:05;10.65;;;3.05;;
75890;SDS011;64571;47.512;19.054;2023-11-21T04:39:08;7.23;;;3.20;;
75890;SDS011;64571;47.512;19.054;2023-11-21T04:42:11;8.50;;;3.12;;
75890;SDS011;64571;47.512;19.054;2023-11-21T04:45:14;12.57;;;3.20;;
75890;SDS011;64571;47.512;19.054;2023-11-21T04:48:18;8.45;;;2.75;;
75890;SDS011;64571;47.512;19.054;2023-11-21T04:51:20;8.73;;;2.67;;
75890;SDS011;64571;47.512;19.054;2023-11-21T04:54:23;6.53;;;2.43;;
75890;SDS011;64571;47.512;19.054;2023-11-21T04:57:29;9.32;;;2.95;;
75890;SDS011;64571;47.512;19.054;2023-11-21T05:00:32;7.85;;;2.83;;
75890;SDS011;64571;47.512;19.054;2023-11-21T05:03:34;8.93;;;2.85;;
75890;SDS011;64571;47.512;19.054;2023-11-21T05:06:38;10.02;;;2.90;;
75890;SDS011;64571;47.512;19.054;2023-11-21T05:09:41;6.97;;;2.43;;
75890;SDS011;64571;47.512;19.054;2023-11-21T05:12:48;9.07;;;2.90;;
75890;SDS011;64571;47.512;19.054;2023-11-21T05:15:52;9.60;;;3.00;;
75890;SDS011;64571;47.512;19.054;2023-11-21T05:18:55;9.27;;;2.60;;
75890;SDS011;64571;47.512;19.054;2023-11-21T05:22:02;6.37;;;3.15;;
75890;SDS011;64571;47.512;19.054;2023-11-21T05:25:05;9.17;;;3.07;;
75890;SDS011;64571;47.512;19.054;2023-11-21T05:28:11;7.97;;;2.83;;
75890;SDS011;64571;47.512;19.054;2023-11-21T05:31:14;9.95;;;2.70;;
75890;SDS011;64571;47.512;19.054;2023-11-21T05:34:18;9.57;;;2.92;;
75890;SDS011;64571;47.512;19.054;2023-11-21T05:37:21;9.18;;;3.42;;
75890;SDS011;64571;47.512;19.054;2023-11-21T05:40:25;6.07;;;2.37;;
75890;SDS011;64571;47.512;19.054;2023-11-21T05:43:31;11.10;;;2.78;;
75890;SDS011;64571;47.512;19.054;2023-11-21T05:46:37;7.35;;;2.60;;
75890;SDS011;64571;47.512;19.054;2023-11-21T05:49:40;10.23;;;2.60;;
75890;SDS011;64571;47.512;19.054;2023-11-21T05:52:44;8.32;;;2.55;;
75890;SDS011;64571;47.512;19.054;2023-11-21T05:55:47;7.60;;;2.73;;
75890;SDS011;64571;47.512;19.054;2023-11-21T05:58:50;8.63;;;2.50;;
75890;SDS011;64571;47.512;19.054;2023-11-21T06:01:53;6.60;;;2.45;;
75890;SDS011;64571;47.512;19.054;2023-11-21T06:04:56;10.02;;;4.10;;
75890;SDS011;64571;47.512;19.054;2023-11-21T06:07:59;11.65;;;3.80;;
75890;SDS011;64571;47.512;19.054;2023-11-21T06:11:03;8.00;;;2.77;;
75890;SDS011;64571;47.512;19.054;2023-11-21T06:14:06;7.10;;;2.80;;
75890;SDS011;64571;47.512;19.054;2023-11-21T06:17:10;9.82;;;3.65;;
75890;SDS011;64571;47.512;19.054;2023-11-21T06:20:13;9.77;;;3.60;;
75890;SDS011;64571;47.512;19.054;2023-11-21T06:23:17;10.32;;;3.20;;
75890;SDS011;64571;47.512;19.054;2023-11-21T06:26:19;7.67;;;3.00;;
75890;SDS011;64571;47.512;19.054;2023-11-21T06:29:22;7.90;;;2.90;;
75890;SDS011;64571;47.512;19.054;2023-11-21T06:32:25;9.88;;;5.47;;
75890;SDS011;64571;47.512;19.054;2023-11-21T06:35:28;12.90;;;3.45;;
75890;SDS011;64571;47.512;19.054;2023-11-21T06:38:32;11.93;;;5.22;;
75890;SDS011;64571;47.512;19.054;2023-11-21T06:41:35;11.77;;;3.20;;
75890;SDS011;64571;47.512;19.054;2023-11-21T06:44:41;12.93;;;4.00;;
75890;SDS011;64571;47.512;19.054;2023-11-21T06:47:43;8.35;;;2.83;;
75890;SDS011;64571;47.512;19.054;2023-11-21T06:50:47;10.93;;;3.67;;
75890;SDS011;64571;47.512;19.054;2023-11-21T06:53:49;12.52;;;3.80;;
75890;SDS011;64571;47.512;19.054;2023-11-21T06:56:52;10.07;;;3.97;;
75890;SDS011;64571;47.512;19.054;2023-11-21T06:59:55;17.70;;;6.05;;
75890;SDS011;64571;47.512;19.054;2023-11-21T07:02:59;14.93;;;6.20;;
75890;SDS011;64571;47.512;19.054;2023-11-21T07:06:02;16.12;;;6.57;;
75890;SDS011;64571;47.512;19.054;2023-11-21T07:09:05;14.90;;;7.03;;
75890;SDS011;64571;47.512;19.054;2023-11-21T07:12:10;15.70;;;7.60;;
75890;SDS011;64571;47.512;19.054;2023-11-21T07:15:13;27.77;;;8.63;;
75890;SDS011;64571;47.512;19.054;2023-11-21T07:18:15;28.12;;;8.88;;
75890;SDS011;64571;47.512;19.054;2023-11-21T07:21:18;20.02;;;8.52;;
75890;SDS011;64571;47.512;19.054;2023-11-21T07:24:21;22.75;;;9.10;;
75890;SDS011;64571;47.512;19.054;2023-11-21T07:27:28;17.90;;;7.93;;
75890;SDS011;64571;47.512;19.054;2023-11-21T07:30:31;17.90;;;7.82;;
75890;SDS011;64571;47.512;19.054;2023-11-21T07:33:34;20.17;;;7.43;;
75890;SDS011;64571;47.512;19.054;2023-11-21T07:36:37;19.17;;;7.70;;
75890;SDS011;64571;47.512;19.054;2023-11-21T07:39:39;16.00;;;6.97;;
75890;SDS011;64571;47.512;19.054;2023-11-21T07:42:44;9.97;;;4.10;;
75890;SDS011;64571;47.512;19.054;2023-11-21T07:45:47;14.57;;;5.10;;
75890;SDS011;64571;47.512;19.054;2023-11-21T07:48:49;15.95;;;5.53;;
75890;SDS011;64571;47.512;19.054;2023-11-21T07:51:52;18.20;;;6.35;;
75890;SDS011;64571;47.512;19.054;2023-11-21T07:54:54;17.95;;;6.72;;
75890;SDS011;64571;47.512;19.054;2023-11-21T07:57:58;16.93;;;5.33;;
75890;SDS011;64571;47.512;19.054;2023-11-21T08:01:01;12.48;;;6.07;;
75890;SDS011;64571;47.512;19.054;2023-11-21T08:04:05;9.82;;;4.57;;
75890;SDS011;64571;47.512;19.054;2023-11-21T08:07:09;12.88;;;4.03;;
75890;SDS011;64571;47.512;19.054;2023-11-21T08:10:12;13.35;;;3.42;;
75890;SDS011;64571;47.512;19.054;2023-11-21T08:13:14;11.70;;;4.20;;
75890;SDS011;64571;47.512;19.054;2023-11-21T08:16:19;11.68;;;3.83;;
75890;SDS011;64571;47.512;19.054;2023-11-21T08:19:21;12.02;;;3.55;;
75890;SDS011;64571;47.512;19.054;2023-11-21T08:22:27;13.13;;;4.50;;
75890;SDS011;64571;47.512;19.054;2023-11-21T08:25:29;9.38;;;3.65;;
75890;SDS011;64571;47.512;19.054;2023-11-21T08:28:32;9.73;;;4.27;;
75890;SDS011;64571;47.512;19.054;2023-11-21T08:31:35;9.02;;;3.70;;
75890;SDS011;64571;47.512;19.054;2023-11-21T08:34:38;11.88;;;4.37;;
75890;SDS011;64571;47.512;19.054;2023-11-21T08:37:42;9.40;;;3.92;;
75890;SDS011;64571;47.512;19.054;2023-11-21T08:40:45;9.70;;;3.45;;
75890;SDS011;64571;47.512;19.054;2023-11-21T08:43:48;8.67;;;3.37;;
75890;SDS011;64571;47.512;19.054;2023-11-21T08:46:52;13.45;;;5.15;;
75890;SDS011;64571;47.512;19.054;2023-11-21T08:49:55;9.38;;;3.67;;
75890;SDS011;64571;47.512;19.054;2023-11-21T08:52:58;15.50;;;4.78;;
75890;SDS011;64571;47.512;19.054;2023-11-21T08:56:00;13.05;;;3.62;;
75890;SDS011;64571;47.512;19.054;2023-11-21T08:59:03;10.30;;;3.73;;
75890;SDS011;64571;47.512;19.054;2023-11-21T09:02:06;9.70;;;3.28;;
75890;SDS011;64571;47.512;19.054;2023-11-21T09:05:10;10.90;;;3.90;;
75890;SDS011;64571;47.512;19.054;2023-11-21T09:08:14;7.20;;;3.58;;
75890;SDS011;64571;47.512;19.054;2023-11-21T09:11:17;8.48;;;3.28;;
75890;SDS011;64571;47.512;19.054;2023-11-21T09:14:19;8.33;;;3.40;;
75890;SDS011;64571;47.512;19.054;2023-11-21T09:17:22;7.72;;;2.97;;
75890;SDS011;64571;47.512;19.054;2023-11-21T09:20:25;7.43;;;2.97;;
75890;SDS011;64571;47.512;19.054;2023-11-21T09:23:27;10.73;;;3.10;;
75890;SDS011;64571;47.512;19.054;2023-11-21T09:26:30;11.35;;;3.42;;
75890;SDS011;64571;47.512;19.054;2023-11-21T09:29:32;10.17;;;3.63;;
75890;SDS011;64571;47.512;19.054;2023-11-21T09:32:35;10.02;;;4.03;;
75890;SDS011;64571;47.512;19.054;2023-11-21T09:35:39;9.57;;;3.75;;
75890;SDS011;64571;47.512;19.054;2023-11-21T09:38:42;9.73;;;3.80;;
75890;SDS011;64571;47.512;19.054;2023-11-21T09:41:51;14.27;;;3.70;;
75890;SDS011;64571;47.512;19.054;2023-11-21T09:48:10;9.07;;;3.75;;
75890;SDS011;64571;47.512;19.054;2023-11-21T09:51:14;8.75;;;2.40;;
75890;SDS011;64571;47.512;19.054;2023-11-21T09:54:18;9.45;;;2.72;;
75890;SDS011;64571;47.512;19.054;2023-11-21T09:57:23;11.55;;;3.25;;
75890;SDS011;64571;47.512;19.054;2023-11-21T10:00:27;10.27;;;3.97;;
75890;SDS011;64571;47.512;19.054;2023-11-21T10:03:31;10.52;;;3.37;;
75890;SDS011;64571;47.512;19.054;2023-11-21T10:06:34;7.55;;;3.03;;
75890;SDS011;64571;47.512;19.054;2023-11-21T10:09:36;14.38;;;3.97;;
75890;SDS011;64571;47.512;19.054;2023-11-21T10:12:39;8.02;;;3.05;;
75890;SDS011;64571;47.512;19.054;2023-11-21T10:15:49;8.60;;;3.43;;
75890;SDS011;64571;47.512;19.054;2023-11-21T10:18:54;8.52;;;3.30;;
75890;SDS011;64571;47.512;19.054;2023-11-21T10:22:12;9.10;;;3.85;;
75890;SDS011;64571;47.512;19.054;2023-11-21T10:25:16;15.15;;;6.57;;
75890;SDS011;64571;47.512;19.054;2023-11-21T10:28:22;19.00;;;7.72;;
75890;SDS011;64571;47.512;19.054;2023-11-21T10:31:28;19.80;;;7.83;;
75890;SDS011;64571;47.512;19.054;2023-11-21T10:34:32;19.80;;;8.55;;
75890;SDS011;64571;47.512;19.054;2023-11-21T10:37:36;17.25;;;8.23;;
75890;SDS011;64571;47.512;19.054;2023-11-21T10:40:43;21.65;;;7.57;;
75890;SDS011;64571;47.512;19.054;2023-11-21T10:43:47;19.98;;;6.82;;
75890;SDS011;64571;47.512;19.054;2023-11-21T10:46:50;14.03;;;7.30;;
75890;SDS011;64571;47.512;19.054;2023-11-21T10:49:56;15.27;;;6.70;;
75890;SDS011;64571;47.512;19.054;2023-11-21T10:52:58;21.62;;;7.10;;
75890;SDS011;64571;47.512;19.054;2023-11-21T10:56:05;16.58;;;7.68;;
75890;SDS011;64571;47.512;19.054;2023-11-21T10:59:10;20.42;;;9.10;;
75890;SDS011;64571;47.512;19.054;2023-11-21T11:02:19;23.47;;;8.93;;
75890;SDS011;64571;47.512;19.054;2023-11-21T11:05:28;19.35;;;8.63;;
75890;SDS011;64571;47.512;19.054;2023-11-21T11:08:31;24.33;;;10.60;;
75890;SDS011;64571;47.512;19.054;2023-11-21T11:11:34;16.95;;;8.18;;
75890;SDS011;64571;47.512;19.054;2023-11-21T11:14:41;18.10;;;8.40;;
75890;SDS011;64571;47.512;19.054;2023-11-21T11:17:45;18.53;;;8.77;;
75890;SDS011;64571;47.512;19.054;2023-11-21T11:20:48;16.80;;;6.72;;
75890;SDS011;64571;47.512;19.054;2023-11-21T11:23:58;18.77;;;8.32;;
75890;SDS011;64571;47.512;19.054;2023-11-21T11:27:28;12.10;;;5.40;;
75890;SDS011;64571;47.512;19.054;2023-11-21T11:33:59;17.03;;;5.17;;
75890;SDS011;64571;47.512;19.054;2023-11-21T11:37:16;11.23;;;5.30;;
75890;SDS011;64571;47.512;19.054;2023-11-21T11:40:20;13.32;;;4.90;;
75890;SDS011;64571;47.512;19.054;2023-11-21T11:43:28;13.95;;;4.62;;
75890;SDS011;64571;47.512;19.054;2023-11-21T11:46:43;12.15;;;4.93;;
75890;SDS011;64571;47.512;19.054;2023-11-21T11:49:56;11.03;;;5.00;;
75890;SDS011;64571;47.512;19.054;2023-11-21T11:53:13;13.02;;;4.60;;
75890;SDS011;64571;47.512;19.054;2023-11-21T11:56:27;13.23;;;4.85;;
75890;SDS011;64571;47.512;19.054;2023-11-21T11:59:40;10.55;;;5.03;;
75890;SDS011;64571;47.512;19.054;2023-11-21T12:03:23;15.32;;;6.20;;
75890;SDS011;64571;47.512;19.054;2023-11-21T12:06:34;19.17;;;5.77;;
75890;SDS011;64571;47.512;19.054;2023-11-21T12:09:37;13.95;;;5.75;;
75890;SDS011;64571;47.512;19.054;2023-11-21T12:12:49;14.90;;;6.00;;
75890;SDS011;64571;47.512;19.054;2023-11-21T12:15:54;12.20;;;5.15;;
75890;SDS011;64571;47.512;19.054;2023-11-21T12:18:57;12.45;;;4.70;;
75890;SDS011;64571;47.512;19.054;2023-11-21T12:22:00;12.47;;;4.90;;
75890;SDS011;64571;47.512;19.054;2023-11-21T12:25:03;10.23;;;4.53;;
75890;SDS011;64571;47.512;19.054;2023-11-21T12:28:07;16.20;;;5.18;;
75890;SDS011;64571;47.512;19.054;2023-11-21T12:31:09;21.02;;;6.00;;
75890;SDS011;64571;47.512;19.054;2023-11-21T12:34:23;23.60;;;6.68;;
75890;SDS011;64571;47.512;19.054;2023-11-21T12:37:26;16.63;;;6.97;;
75890;SDS011;64571;47.512;19.054;2023-11-21T12:40:29;14.10;;;5.68;;
75890;SDS011;64571;47.512;19.054;2023-11-21T12:43:31;12.95;;;5.40;;
75890;SDS011;64571;47.512;19.054;2023-11-21T12:46:36;18.30;;;5.68;;
75890;SDS011;64571;47.512;19.054;2023-11-21T12:49:38;16.37;;;5.82;;
75890;SDS011;64571;47.512;19.054;2023-11-21T12:52:41;16.00;;;5.63;;
75890;SDS011;64571;47.512;19.054;2023-11-21T12:55:49;18.73;;;6.65;;
75890;SDS011;64571;47.512;19.054;2023-11-21T12:58:53;15.57;;;6.18;;
75890;SDS011;64571;47.512;19.054;2023-11-21T13:01:56;14.85;;;5.97;;
75890;SDS011;64571;47.512;19.054;2023-11-21T13:05:01;11.55;;;5.95;;
75890;SDS011;64571;47.512;19.054;2023-11-21T13:08:09;12.67;;;6.17;;
75890;SDS011;64571;47.512;19.054;2023-11-21T13:11:15;14.15;;;6.75;;
75890;SDS011;64571;47.512;19.054;2023-11-21T13:14:17;15.02;;;6.07;;
75890;SDS011;64571;47.512;19.054;2023-11-21T13:17:20;16.10;;;6.93;;
75890;SDS011;64571;47.512;19.054;2023-11-21T13:20:26;17.33;;;7.55;;
75890;SDS011;64571;47.512;19.054;2023-11-21T13:23:29;21.83;;;7.77;;
75890;SDS011;64571;47.512;19.054;2023-11-21T13:26:38;22.45;;;8.20;;
75890;SDS011;64571;47.512;19.054;2023-11-21T13:29:41;21.42;;;8.90;;
75890;SDS011;64571;47.512;19.054;2023-11-21T13:32:44;18.67;;;8.43;;
75890;SDS011;64571;47.512;19.054;2023-11-21T13:35:53;15.15;;;7.87;;
75890;SDS011;64571;47.512;19.054;2023-11-21T13:38:58;19.80;;;7.67;;
75890;SDS011;64571;47.512;19.054;2023-11-21T13:42:01;25.30;;;8.57;;
75890;SDS011;64571;47.512;19.054;2023-11-21T13:45:05;18.67;;;8.07;;
75890;SDS011;64571;47.512;19.054;2023-11-21T13:48:08;16.12;;;6.60;;
75890;SDS011;64571;47.512;19.054;2023-11-21T13:51:22;20.60;;;6.95;;
75890;SDS011;64571;47.512;19.054;2023-11-21T13:54:33;16.97;;;7.03;;
75890;SDS011;64571;47.512;19.054;2023-11-21T13:57:35;16.75;;;6.50;;
75890;SDS011;64571;47.512;19.054;2023-11-21T14:00:38;16.52;;;6.93;;
75890;SDS011;64571;47.512;19.054;2023-11-21T14:03:46;13.60;;;6.30;;
75890;SDS011;64571;47.512;19.054;2023-11-21T14:06:54;15.15;;;5.50;;
75890;SDS011;64571;47.512;19.054;2023-11-21T14:09:57;13.90;;;4.77;;
75890;SDS011;64571;47.512;19.054;2023-11-21T14:13:00;10.85;;;5.35;;
75890;SDS011;64571;47.512;19.054;2023-11-21T14:16:03;10.88;;;4.90;;
75890;SDS011;64571;47.512;19.054;2023-11-21T14:19:08;10.13;;;4.25;;
75890;SDS011;64571;47.512;19.054;2023-11-21T14:22:20;12.80;;;4.07;;
75890;SDS011;64571;47.512;19.054;2023-11-21T14:25:23;10.90;;;4.50;;
75890;SDS011;64571;47.512;19.054;2023-11-21T14:28:26;13.23;;;4.20;;
75890;SDS011;64571;47.512;19.054;2023-11-21T14:31:29;10.73;;;3.87;;
75890;SDS011;64571;47.512;19.054;2023-11-21T14:34:34;10.27;;;3.97;;
75890;SDS011;64571;47.512;19.054;2023-11-21T14:37:36;10.32;;;3.97;;
75890;SDS011;64571;47.512;19.054;2023-11-21T14:40:39;15.30;;;4.83;;
75890;SDS011;64571;47.512;19.054;2023-11-21T14:43:43;12.10;;;4.53;;
75890;SDS011;64571;47.512;19.054;2023-11-21T14:46:47;11.10;;;4.50;;
75890;SDS011;64571;47.512;19.054;2023-11-21T14:49:52;11.07;;;4.00;;
75890;SDS011;64571;47.512;19.054;2023-11-21T14:52:56;9.40;;;3.58;;
75890;SDS011;64571;47.512;19.054;2023-11-21T14:56:01;15.07;;;4.07;;
75890;SDS011;64571;47.512;19.054;2023-11-21T14:59:06;8.85;;;3.47;;
75890;SDS011;64571;47.512;19.054;2023-11-21T15:02:14;18.27;;;5.10;;
75890;SDS011;64571;47.512;19.054;2023-11-21T15:05:18;11.68;;;4.03;;
75890;SDS011;64571;47.512;19.054;2023-11-21T15:08:22;12.37;;;3.58;;
75890;SDS011;64571;47.512;19.054;2023-11-21T15:11:34;23.17;;;8.73;;
75890;SDS011;64571;47.512;19.054;2023-11-21T15:14:39;11.32;;;4.05;;
75890;SDS011;64571;47.512;19.054;2023-11-21T15:17:51;11.93;;;3.83;;
75890;SDS011;64571;47.512;19.054;2023-11-21T15:20:53;12.13;;;3.40;;
75890;SDS011;64571;47.512;19.054;2023-11-21T15:23:57;11.02;;;4.05;;
75890;SDS011;64571;47.512;19.054;2023-11-21T15:26:59;11.67;;;3.73;;
75890;SDS011;64571;47.512;19.054;2023-11-21T15:30:02;10.65;;;3.67;;
75890;SDS011;64571;47.512;19.054;2023-11-21T15:33:05;11.52;;;4.97;;
75890;SDS011;64571;47.512;19.054;2023-11-21T15:36:10;9.60;;;4.00;;
75890;SDS011;64571;47.512;19.054;2023-11-21T15:39:12;8.57;;;3.90;;
75890;SDS011;64571;47.512;19.054;2023-11-21T15:42:15;9.60;;;3.67;;
75890;SDS011;64571;47.512;19.054;2023-11-21T15:45:17;9.93;;;3.72;;
75890;SDS011;64571;47.512;19.054;2023-11-21T15:48:23;9.60;;;3.92;;
75890;SDS011;64571;47.512;19.054;2023-11-21T15:51:25;11.68;;;4.30;;
75890;SDS011;64571;47.512;19.054;2023-11-21T15:54:28;11.15;;;4.32;;
75890;SDS011;64571;47.512;19.054;2023-11-21T15:57:32;10.60;;;4.10;;
75890;SDS011;64571;47.512;19.054;2023-11-21T16:00:34;13.43;;;4.82;;
75890;SDS011;64571;47.512;19.054;2023-11-21T16:03:39;12.65;;;5.28;;
75890;SDS011;64571;47.512;19.054;2023-11-21T16:06:42;13.05;;;4.30;;
75890;SDS011;64571;47.512;19.054;2023-11-21T16:09:45;13.45;;;5.30;;
75890;SDS011;64571;47.512;19.054;2023-11-21T16:12:48;19.17;;;5.63;;
75890;SDS011;64571;47.512;19.054;2023-11-21T16:15:50;14.40;;;4.72;;
75890;SDS011;64571;47.512;19.054;2023-11-21T16:18:53;11.30;;;4.57;;
75890;SDS011;64571;47.512;19.054;2023-11-21T16:21:56;13.00;;;4.37;;
75890;SDS011;64571;47.512;19.054;2023-11-21T16:24:58;15.50;;;4.55;;
75890;SDS011;64571;47.512;19.054;2023-11-21T16:28:02;12.30;;;4.20;;
75890;SDS011;64571;47.512;19.054;2023-11-21T16:31:07;11.10;;;4.50;;
75890;SDS011;64571;47.512;19.054;2023-11-21T16:34:14;15.05;;;5.75;;
75890;SDS011;64571;47.512;19.054;2023-11-21T16:37:22;11.57;;;4.47;;
75890;SDS011;64571;47.512;19.054;2023-11-21T16:40:24;10.90;;;4.72;;
75890;SDS011;64571;47.512;19.054;2023-11-21T16:43:27;10.17;;;4.80;;
75890;SDS011;64571;47.512;19.054;2023-11-21T16:46:30;12.93;;;5.05;;
75890;SDS011;64571;47.512;19.054;2023-11-21T16:49:32;12.45;;;5.55;;
75890;SDS011;64571;47.512;19.054;2023-11-21T16:52:40;12.25;;;5.32;;
75890;SDS011;64571;47.512;19.054;2023-11-21T16:55:43;17.37;;;7.80;;
75890;SDS011;64571;47.512;19.054;2023-11-21T16:58:48;17.70;;;5.30;;
75890;SDS011;64571;47.512;19.054;2023-11-21T17:01:52;13.30;;;5.07;;
75890;SDS011;64571;47.512;19.054;2023-11-21T17:04:55;10.75;;;4.95;;
75890;SDS011;64571;47.512;19.054;2023-11-21T17:07:57;13.70;;;6.30;;
75890;SDS011;64571;47.512;19.054;2023-11-21T17:11:00;17.90;;;5.97;;
75890;SDS011;64571;47.512;19.054;2023-11-21T17:14:03;11.97;;;5.20;;
75890;SDS011;64571;47.512;19.054;2023-11-21T17:17:09;13.25;;;6.03;;
75890;SDS011;64571;47.512;19.054;2023-11-21T17:20:13;13.43;;;5.78;;
75890;SDS011;64571;47.512;19.054;2023-11-21T17:23:16;15.55;;;6.50;;
75890;SDS011;64571;47.512;19.054;2023-11-21T17:26:18;14.68;;;6.25;;
75890;SDS011;64571;47.512;19.054;2023-11-21T17:29:21;16.13;;;6.63;;
75890;SDS011;64571;47.512;19.054;2023-11-21T17:32:24;15.73;;;6.22;;
75890;SDS011;64571;47.512;19.054;2023-11-21T17:35:26;17.85;;;6.40;;
75890;SDS011;64571;47.512;19.054;2023-11-21T17:38:29;15.35;;;6.07;;
75890;SDS011;64571;47.512;19.054;2023-11-21T17:41:31;14.18;;;6.53;;
75890;SDS011;64571;47.512;19.054;2023-11-21T17:44:34;12.70;;;6.03;;
75890;SDS011;64571;47.512;19.054;2023-11-21T17:47:37;14.57;;;6.57;;
75890;SDS011;64571;47.512;19.054;2023-11-21T17:50:39;13.43;;;6.03;;
75890;SDS011;64571;47.512;19.054;2023-11-21T17:53:42;15.23;;;6.85;;
75890;SDS011;64571;47.512;19.054;2023-11-21T17:56:46;17.42;;;7.00;;
75890;SDS011;64571;47.512;19.054;2023-11-21T17:59:50;13.70;;;6.57;;
75890;SDS011;64571;47.512;19.054;2023-11-21T18:02:53;17.52;;;6.95;;
75890;SDS011;64571;47.512;19.054;2023-11-21T18:05:56;13.57;;;6.82;;
75890;SDS011;64571;47.512;19.054;2023-11-21T18:08:59;19.42;;;8.27;;